sensor_id;sensor_type;location;lat;lon;timestamp;temperature;humidity
6307;DHT22;3186;54.062;9.962;2023-11-18T00:00:49;6.10;99.90
6307;DHT22;3186;54.062;9.962;2023-11-18T00:03:14;6.10;99.90
6307;DHT22;3186;54.062;9.962;2023-11-18T00:05:40;6.10;99.90
6307;DHT22;3186;54.062;9.962;2023-11-18T00:08:06;6.10;99.90
6307;DHT22;3186;54.062;9.962;2023-11-18T00:10:32;6.10;99.90
6307;DHT22;3186;54.062;9.962;2023-11-18T00:12:58;6.10;99.90
6307;DHT22;3186;54.062;9.962;2023-11-18T00:15:23;6.10;99.90
6307;DHT22;3186;54.062;9.962;2023-11-18T00:17:49;6.10;99.90
6307;DHT22;3186;54.062;9.962;2023-11-18T00:20:14;6.10;99.90
6307;DHT22;3186;54.062;9.962;2023-11-18T00:22:41;6.10;99.90
6307;DHT22;3186;54.062;9.962;2023-11-18T00:25:08;6.10;99.90
6307;DHT22;3186;54.062;9.962;2023-11-18T00:27:34;6.10;99.90
6307;DHT22;3186;54.062;9.962;2023-11-18T00:30:04;6.10;99.90
6307;DHT22;3186;54.062;9.962;2023-11-18T00:32:31;6.10;99.90
6307;DHT22;3186;54.062;9.962;2023-11-18T00:34:57;6.10;99.90
6307;DHT22;3186;54.062;9.962;2023-11-18T00:37:23;6.10;99.90
6307;DHT22;3186;54.062;9.962;2023-11-18T00:39:49;6.10;99.90
6307;DHT22;3186;54.062;9.962;2023-11-18T00:42:14;6.10;99.90
6307;DHT22;3186;54.062;9.962;2023-11-18T00:44:41;6.10;99.90
6307;DHT22;3186;54.062;9.962;2023-11-18T00:47:06;6.10;99.90
6307;DHT22;3186;54.062;9.962;2023-11-18T00:49:32;6.10;99.90
6307;DHT22;3186;54.062;9.962;2023-11-18T00:51:59;6.00;99.90
6307;DHT22;3186;54.062;9.962;2023-11-18T00:54:25;6.00;99.90
6307;DHT22;3186;54.062;9.962;2023-11-18T00:56:52;6.00;99.90
6307;DHT22;3186;54.062;9.962;2023-11-18T00:59:17;6.00;99.90
6307;DHT22;3186;54.062;9.962;2023-11-18T01:01:43;6.00;99.90
6307;DHT22;3186;54.062;9.962;2023-11-18T01:04:09;6.00;99.90
6307;DHT22;3186;54.062;9.962;2023-11-18T01:06:36;6.00;99.90
6307;DHT22;3186;54.062;9.962;2023-11-18T01:09:02;6.00;99.90
6307;DHT22;3186;54.062;9.962;2023-11-18T01:11:28;5.90;99.90
6307;DHT22;3186;54.062;9.962;2023-11-18T01:13:53;5.90;99.90
6307;DHT22;3186;54.062;9.962;2023-11-18T01:16:20;5.90;99.90
6307;DHT22;3186;54.062;9.962;2023-11-18T01:18:46;5.90;99.90
6307;DHT22;3186;54.062;9.962;2023-11-18T01:21:12;5.90;99.90
6307;DHT22;3186;54.062;9.962;2023-11-18T01:23:38;5.90;99.90
6307;DHT22;3186;54.062;9.962;2023-11-18T01:26:07;5.90;99.90
6307;DHT22;3186;54.062;9.962;2023-11-18T01:28:34;5.90;99.90
6307;DHT22;3186;54.062;9.962;2023-11-18T01:31:06;5.90;99.90
6307;DHT22;3186;54.062;9.962;2023-11-18T01:33:37;5.90;99.90
6307;DHT22;3186;54.062;9.962;2023-11-18T01:36:04;5.90;99.90
6307;DHT22;3186;54.062;9.962;2023-11-18T01:38:29;5.90;99.90
6307;DHT22;3186;54.062;9.962;2023-11-18T01:40:56;5.90;99.90
6307;DHT22;3186;54.062;9.962;2023-11-18T01:43:22;5.90;99.90
6307;DHT22;3186;54.062;9.962;2023-11-18T01:45:48;5.90;99.90
6307;DHT22;3186;54.062;9.962;2023-11-18T01:48:14;5.90;99.90
6307;DHT22;3186;54.062;9.962;2023-11-18T01:50:41;5.90;99.90
6307;DHT22;3186;54.062;9.962;2023-11-18T01:53:08;5.90;99.90
6307;DHT22;3186;54.062;9.962;2023-11-18T01:55:35;5.90;99.90
6307;DHT22;3186;54.062;9.962;2023-11-18T01:58:02;5.90;99.90
6307;DHT22;3186;54.062;9.962;2023-11-18T02:00:35;5.90;99.90
6307;DHT22;3186;54.062;9.962;2023-11-18T02:03:04;5.90;99.90
6307;DHT22;3186;54.062;9.962;2023-11-18T02:05:32;5.90;99.90
6307;DHT22;3186;54.062;9.962;2023-11-18T02:08:04;5.90;99.90
6307;DHT22;3186;54.062;9.962;2023-11-18T02:10:48;5.90;99.90
6307;DHT22;3186;54.062;9.962;2023-11-18T02:13:30;5.90;99.90
6307;DHT22;3186;54.062;9.962;2023-11-18T02:15:57;5.90;99.90
6307;DHT22;3186;54.062;9.962;2023-11-18T02:18:29;5.90;99.90
6307;DHT22;3186;54.062;9.962;2023-11-18T02:20:56;5.90;99.90
6307;DHT22;3186;54.062;9.962;2023-11-18T02:23:25;5.90;99.90
6307;DHT22;3186;54.062;9.962;2023-11-18T02:25:55;5.90;99.90
6307;DHT22;3186;54.062;9.962;2023-11-18T02:28:23;5.90;99.90
6307;DHT22;3186;54.062;9.962;2023-11-18T02:30:56;5.80;99.90
6307;DHT22;3186;54.062;9.962;2023-11-18T02:33:28;5.90;99.90
6307;DHT22;3186;54.062;9.962;2023-11-18T02:36:31;5.90;99.90
6307;DHT22;3186;54.062;9.962;2023-11-18T02:39:12;5.90;99.90
6307;DHT22;3186;54.062;9.962;2023-11-18T02:41:47;5.80;99.90
6307;DHT22;3186;54.062;9.962;2023-11-18T02:44:14;5.90;99.90
6307;DHT22;3186;54.062;9.962;2023-11-18T02:46:44;5.80;99.90
6307;DHT22;3186;54.062;9.962;2023-11-18T02:49:10;5.80;99.90
6307;DHT22;3186;54.062;9.962;2023-11-18T02:51:35;5.80;99.90
6307;DHT22;3186;54.062;9.962;2023-11-18T02:54:08;5.80;99.90
6307;DHT22;3186;54.062;9.962;2023-11-18T02:56:36;5.80;99.90
6307;DHT22;3186;54.062;9.962;2023-11-18T02:59:02;5.80;99.90
6307;DHT22;3186;54.062;9.962;2023-11-18T03:01:32;5.80;99.90
6307;DHT22;3186;54.062;9.962;2023-11-18T03:03:58;5.80;99.90
6307;DHT22;3186;54.062;9.962;2023-11-18T03:06:23;5.80;99.90
6307;DHT22;3186;54.062;9.962;2023-11-18T03:08:49;5.80;99.90
6307;DHT22;3186;54.062;9.962;2023-11-18T03:11:15;5.80;99.90
6307;DHT22;3186;54.062;9.962;2023-11-18T03:13:40;5.80;99.90
6307;DHT22;3186;54.062;9.962;2023-11-18T03:16:07;5.80;99.90
6307;DHT22;3186;54.062;9.962;2023-11-18T03:18:38;5.80;99.90
6307;DHT22;3186;54.062;9.962;2023-11-18T03:21:06;5.80;99.90
6307;DHT22;3186;54.062;9.962;2023-11-18T03:23:38;5.80;99.90
6307;DHT22;3186;54.062;9.962;2023-11-18T03:26:04;5.80;99.90
6307;DHT22;3186;54.062;9.962;2023-11-18T03:28:31;5.80;99.90
6307;DHT22;3186;54.062;9.962;2023-11-18T03:30:56;5.80;99.90
6307;DHT22;3186;54.062;9.962;2023-11-18T03:33:22;5.80;99.90
6307;DHT22;3186;54.062;9.962;2023-11-18T03:35:48;5.80;99.90
6307;DHT22;3186;54.062;9.962;2023-11-18T03:38:14;5.80;99.90
6307;DHT22;3186;54.062;9.962;2023-11-18T03:40:40;5.70;99.90
6307;DHT22;3186;54.062;9.962;2023-11-18T03:43:08;5.80;99.90
6307;DHT22;3186;54.062;9.962;2023-11-18T03:45:38;5.70;99.90
6307;DHT22;3186;54.062;9.962;2023-11-18T03:48:04;5.80;99.90
6307;DHT22;3186;54.062;9.962;2023-11-18T03:50:30;5.70;99.90
6307;DHT22;3186;54.062;9.962;2023-11-18T03:52:56;5.70;99.90
6307;DHT22;3186;54.062;9.962;2023-11-18T03:55:21;5.70;99.90
6307;DHT22;3186;54.062;9.962;2023-11-18T03:57:47;5.70;99.90
6307;DHT22;3186;54.062;9.962;2023-11-18T04:00:15;5.70;99.90
6307;DHT22;3186;54.062;9.962;2023-11-18T04:02:41;5.70;99.90
6307;DHT22;3186;54.062;9.962;2023-11-18T04:05:08;5.70;99.90
6307;DHT22;3186;54.062;9.962;2023-11-18T04:07:34;5.70;99.90
6307;DHT22;3186;54.062;9.962;2023-11-18T04:10:00;5.70;99.90
6307;DHT22;3186;54.062;9.962;2023-11-18T04:12:31;5.70;99.90
6307;DHT22;3186;54.062;9.962;2023-11-18T04:14:57;5.70;99.90
6307;DHT22;3186;54.062;9.962;2023-11-18T04:17:22;5.70;99.90
6307;DHT22;3186;54.062;9.962;2023-11-18T04:19:48;5.70;99.90
6307;DHT22;3186;54.062;9.962;2023-11-18T04:22:13;5.70;99.90
6307;DHT22;3186;54.062;9.962;2023-11-18T04:24:39;5.70;99.90
6307;DHT22;3186;54.062;9.962;2023-11-18T04:27:05;5.70;99.90
6307;DHT22;3186;54.062;9.962;2023-11-18T04:29:30;5.70;99.90
6307;DHT22;3186;54.062;9.962;2023-11-18T04:31:56;5.70;99.90
6307;DHT22;3186;54.062;9.962;2023-11-18T04:34:22;5.70;99.90
6307;DHT22;3186;54.062;9.962;2023-11-18T04:36:48;5.70;99.90
6307;DHT22;3186;54.062;9.962;2023-11-18T04:39:14;5.70;99.90
6307;DHT22;3186;54.062;9.962;2023-11-18T04:41:42;5.70;99.90
6307;DHT22;3186;54.062;9.962;2023-11-18T04:44:07;5.70;99.90
6307;DHT22;3186;54.062;9.962;2023-11-18T04:46:34;5.70;99.90
6307;DHT22;3186;54.062;9.962;2023-11-18T04:49:01;5.70;99.90
6307;DHT22;3186;54.062;9.962;2023-11-18T04:51:28;5.70;99.90
6307;DHT22;3186;54.062;9.962;2023-11-18T04:53:54;5.70;99.90
6307;DHT22;3186;54.062;9.962;2023-11-18T04:56:19;5.70;99.90
6307;DHT22;3186;54.062;9.962;2023-11-18T04:58:47;5.70;99.90
6307;DHT22;3186;54.062;9.962;2023-11-18T05:01:14;5.70;99.90
6307;DHT22;3186;54.062;9.962;2023-11-18T05:03:39;5.70;99.90
6307;DHT22;3186;54.062;9.962;2023-11-18T05:06:05;5.70;99.90
6307;DHT22;3186;54.062;9.962;2023-11-18T05:08:31;5.60;99.90
6307;DHT22;3186;54.062;9.962;2023-11-18T05:10:58;5.60;99.90
6307;DHT22;3186;54.062;9.962;2023-11-18T05:13:24;5.60;99.90
6307;DHT22;3186;54.062;9.962;2023-11-18T05:15:52;5.70;99.90
6307;DHT22;3186;54.062;9.962;2023-11-18T05:18:19;5.70;99.90
6307;DHT22;3186;54.062;9.962;2023-11-18T05:20:47;5.60;99.90
6307;DHT22;3186;54.062;9.962;2023-11-18T05:23:13;5.70;99.90
6307;DHT22;3186;54.062;9.962;2023-11-18T05:25:42;5.70;99.90
6307;DHT22;3186;54.062;9.962;2023-11-18T05:28:11;5.70;99.90
6307;DHT22;3186;54.062;9.962;2023-11-18T05:30:38;5.70;99.90
6307;DHT22;3186;54.062;9.962;2023-11-18T05:33:04;5.70;99.90
6307;DHT22;3186;54.062;9.962;2023-11-18T05:35:34;5.70;99.90
6307;DHT22;3186;54.062;9.962;2023-11-18T05:38:00;5.70;99.90
6307;DHT22;3186;54.062;9.962;2023-11-18T05:40:28;5.70;99.90
6307;DHT22;3186;54.062;9.962;2023-11-18T05:42:55;5.70;99.90
6307;DHT22;3186;54.062;9.962;2023-11-18T05:45:22;5.70;99.90
6307;DHT22;3186;54.062;9.962;2023-11-18T05:48:02;5.70;99.90
6307;DHT22;3186;54.062;9.962;2023-11-18T05:50:28;5.70;99.90
6307;DHT22;3186;54.062;9.962;2023-11-18T05:52:54;5.70;99.90
6307;DHT22;3186;54.062;9.962;2023-11-18T05:55:21;5.70;99.90
6307;DHT22;3186;54.062;9.962;2023-11-18T05:57:46;5.70;99.90
6307;DHT22;3186;54.062;9.962;2023-11-18T06:00:13;5.70;99.90
6307;DHT22;3186;54.062;9.962;2023-11-18T06:02:44;5.70;99.90
6307;DHT22;3186;54.062;9.962;2023-11-18T06:05:10;5.70;99.90
6307;DHT22;3186;54.062;9.962;2023-11-18T06:07:39;5.70;99.90
6307;DHT22;3186;54.062;9.962;2023-11-18T06:10:08;5.70;99.90
6307;DHT22;3186;54.062;9.962;2023-11-18T06:12:34;5.70;99.90
6307;DHT22;3186;54.062;9.962;2023-11-18T06:15:02;5.70;99.90
6307;DHT22;3186;54.062;9.962;2023-11-18T06:17:27;5.70;99.90
6307;DHT22;3186;54.062;9.962;2023-11-18T06:19:53;5.70;99.90
6307;DHT22;3186;54.062;9.962;2023-11-18T06:22:19;5.60;99.90
6307;DHT22;3186;54.062;9.962;2023-11-18T06:24:45;5.60;99.90
6307;DHT22;3186;54.062;9.962;2023-11-18T06:27:11;5.70;99.90
6307;DHT22;3186;54.062;9.962;2023-11-18T06:29:38;5.60;99.90
6307;DHT22;3186;54.062;9.962;2023-11-18T06:32:05;5.60;99.90
6307;DHT22;3186;54.062;9.962;2023-11-18T06:34:31;5.60;99.90
6307;DHT22;3186;54.062;9.962;2023-11-18T06:36:58;5.60;99.90
6307;DHT22;3186;54.062;9.962;2023-11-18T06:39:23;5.60;99.90
6307;DHT22;3186;54.062;9.962;2023-11-18T06:41:56;5.60;99.90
6307;DHT22;3186;54.062;9.962;2023-11-18T06:44:22;5.60;99.90
6307;DHT22;3186;54.062;9.962;2023-11-18T06:46:50;5.60;99.90
6307;DHT22;3186;54.062;9.962;2023-11-18T06:49:16;5.60;99.90
6307;DHT22;3186;54.062;9.962;2023-11-18T06:51:42;5.60;99.90
6307;DHT22;3186;54.062;9.962;2023-11-18T06:54:08;5.60;99.90
6307;DHT22;3186;54.062;9.962;2023-11-18T06:56:36;5.60;99.90
6307;DHT22;3186;54.062;9.962;2023-11-18T06:59:07;5.70;99.90
6307;DHT22;3186;54.062;9.962;2023-11-18T07:01:34;5.60;99.90
6307;DHT22;3186;54.062;9.962;2023-11-18T07:03:59;5.60;99.90
6307;DHT22;3186;54.062;9.962;2023-11-18T07:06:25;5.60;99.90
6307;DHT22;3186;54.062;9.962;2023-11-18T07:08:53;5.70;99.90
6307;DHT22;3186;54.062;9.962;2023-11-18T07:11:19;5.70;99.90
6307;DHT22;3186;54.062;9.962;2023-11-18T07:13:47;5.70;99.90
6307;DHT22;3186;54.062;9.962;2023-11-18T07:16:13;5.70;99.90
6307;DHT22;3186;54.062;9.962;2023-11-18T07:18:40;5.60;99.90
6307;DHT22;3186;54.062;9.962;2023-11-18T07:21:06;5.60;99.90
6307;DHT22;3186;54.062;9.962;2023-11-18T07:23:32;5.60;99.90
6307;DHT22;3186;54.062;9.962;2023-11-18T07:25:58;5.60;99.90
6307;DHT22;3186;54.062;9.962;2023-11-18T07:28:25;5.60;99.90
6307;DHT22;3186;54.062;9.962;2023-11-18T07:30:52;5.60;99.90
6307;DHT22;3186;54.062;9.962;2023-11-18T07:33:19;5.60;99.90
6307;DHT22;3186;54.062;9.962;2023-11-18T07:35:47;5.60;99.90
6307;DHT22;3186;54.062;9.962;2023-11-18T07:38:16;5.60;99.90
6307;DHT22;3186;54.062;9.962;2023-11-18T07:40:42;5.70;99.90
6307;DHT22;3186;54.062;9.962;2023-11-18T07:43:11;5.60;99.90
6307;DHT22;3186;54.062;9.962;2023-11-18T07:45:38;5.60;99.90
6307;DHT22;3186;54.062;9.962;2023-11-18T07:48:05;5.60;99.90
6307;DHT22;3186;54.062;9.962;2023-11-18T07:50:37;5.60;99.90
6307;DHT22;3186;54.062;9.962;2023-11-18T07:53:03;5.60;99.90
6307;DHT22;3186;54.062;9.962;2023-11-18T07:55:32;5.70;99.90
6307;DHT22;3186;54.062;9.962;2023-11-18T07:58:03;5.70;99.90
6307;DHT22;3186;54.062;9.962;2023-11-18T08:00:29;5.70;99.90
6307;DHT22;3186;54.062;9.962;2023-11-18T08:02:59;5.70;99.90
6307;DHT22;3186;54.062;9.962;2023-11-18T08:05:26;5.70;99.90
6307;DHT22;3186;54.062;9.962;2023-11-18T08:07:53;5.70;99.90
6307;DHT22;3186;54.062;9.962;2023-11-18T08:10:19;5.70;99.90
6307;DHT22;3186;54.062;9.962;2023-11-18T08:12:47;5.70;99.90
6307;DHT22;3186;54.062;9.962;2023-11-18T08:15:13;5.70;99.90
6307;DHT22;3186;54.062;9.962;2023-11-18T08:17:39;5.70;99.90
6307;DHT22;3186;54.062;9.962;2023-11-18T08:20:05;5.70;99.90
6307;DHT22;3186;54.062;9.962;2023-11-18T08:22:43;5.70;99.90
6307;DHT22;3186;54.062;9.962;2023-11-18T08:25:13;5.70;99.90
6307;DHT22;3186;54.062;9.962;2023-11-18T08:27:40;5.80;99.90
6307;DHT22;3186;54.062;9.962;2023-11-18T08:30:08;5.80;99.90
6307;DHT22;3186;54.062;9.962;2023-11-18T08:32:37;5.80;99.90
6307;DHT22;3186;54.062;9.962;2023-11-18T08:35:08;5.80;99.90
6307;DHT22;3186;54.062;9.962;2023-11-18T08:37:38;5.90;99.90
6307;DHT22;3186;54.062;9.962;2023-11-18T08:40:04;5.80;99.90
6307;DHT22;3186;54.062;9.962;2023-11-18T08:42:44;5.90;99.90
6307;DHT22;3186;54.062;9.962;2023-11-18T08:45:24;5.90;99.90
6307;DHT22;3186;54.062;9.962;2023-11-18T08:47:58;5.90;99.90
6307;DHT22;3186;54.062;9.962;2023-11-18T08:50:24;5.90;99.90
6307;DHT22;3186;54.062;9.962;2023-11-18T08:52:51;5.90;99.90
6307;DHT22;3186;54.062;9.962;2023-11-18T08:55:26;5.90;99.90
6307;DHT22;3186;54.062;9.962;2023-11-18T08:58:05;5.90;99.90
6307;DHT22;3186;54.062;9.962;2023-11-18T09:00:42;5.90;99.90
6307;DHT22;3186;54.062;9.962;2023-11-18T09:05:46;6.00;99.90
6307;DHT22;3186;54.062;9.962;2023-11-18T09:08:29;6.00;99.90
6307;DHT22;3186;54.062;9.962;2023-11-18T09:10:58;6.10;99.90
6307;DHT22;3186;54.062;9.962;2023-11-18T09:13:25;6.10;99.90
6307;DHT22;3186;54.062;9.962;2023-11-18T09:15:59;6.00;99.90
6307;DHT22;3186;54.062;9.962;2023-11-18T09:18:38;6.00;99.90
6307;DHT22;3186;54.062;9.962;2023-11-18T09:21:05;6.00;99.90
6307;DHT22;3186;54.062;9.962;2023-11-18T09:23:33;6.00;99.90
6307;DHT22;3186;54.062;9.962;2023-11-18T09:26:03;6.00;99.90
6307;DHT22;3186;54.062;9.962;2023-11-18T09:28:34;6.00;99.90
6307;DHT22;3186;54.062;9.962;2023-11-18T09:31:04;6.00;99.90
6307;DHT22;3186;54.062;9.962;2023-11-18T09:33:33;6.00;99.90
6307;DHT22;3186;54.062;9.962;2023-11-18T09:36:07;6.00;99.90
6307;DHT22;3186;54.062;9.962;2023-11-18T09:41:03;5.90;99.90
6307;DHT22;3186;54.062;9.962;2023-11-18T09:43:33;5.90;99.90
6307;DHT22;3186;54.062;9.962;2023-11-18T09:46:07;5.90;99.90
6307;DHT22;3186;54.062;9.962;2023-11-18T09:48:42;5.90;99.90
6307;DHT22;3186;54.062;9.962;2023-11-18T09:51:19;5.90;99.90
6307;DHT22;3186;54.062;9.962;2023-11-18T09:53:52;5.90;99.90
6307;DHT22;3186;54.062;9.962;2023-11-18T09:56:26;5.90;99.90
6307;DHT22;3186;54.062;9.962;2023-11-18T10:01:57;5.90;99.90
6307;DHT22;3186;54.062;9.962;2023-11-18T10:04:24;5.90;99.90
6307;DHT22;3186;54.062;9.962;2023-11-18T10:06:56;6.00;99.90
6307;DHT22;3186;54.062;9.962;2023-11-18T10:09:26;6.00;99.90
6307;DHT22;3186;54.062;9.962;2023-11-18T10:12:07;6.00;99.90
6307;DHT22;3186;54.062;9.962;2023-11-18T10:14:36;6.00;99.90
6307;DHT22;3186;54.062;9.962;2023-11-18T10:17:06;6.10;99.90
6307;DHT22;3186;54.062;9.962;2023-11-18T10:20:10;6.10;99.90
6307;DHT22;3186;54.062;9.962;2023-11-18T10:22:38;6.10;99.90
6307;DHT22;3186;54.062;9.962;2023-11-18T10:25:03;6.10;99.90
6307;DHT22;3186;54.062;9.962;2023-11-18T10:27:31;6.10;99.90
6307;DHT22;3186;54.062;9.962;2023-11-18T10:30:04;6.10;99.90
6307;DHT22;3186;54.062;9.962;2023-11-18T10:32:30;6.10;99.90
6307;DHT22;3186;54.062;9.962;2023-11-18T10:35:01;6.10;99.90
6307;DHT22;3186;54.062;9.962;2023-11-18T10:37:27;6.10;99.90
6307;DHT22;3186;54.062;9.962;2023-11-18T10:39:57;6.20;99.90
6307;DHT22;3186;54.062;9.962;2023-11-18T10:42:26;6.20;99.90
6307;DHT22;3186;54.062;9.962;2023-11-18T10:44:59;6.20;99.90
6307;DHT22;3186;54.062;9.962;2023-11-18T10:47:32;6.20;99.90
6307;DHT22;3186;54.062;9.962;2023-11-18T10:49:57;6.20;99.90
6307;DHT22;3186;54.062;9.962;2023-11-18T10:52:27;6.20;99.90
6307;DHT22;3186;54.062;9.962;2023-11-18T10:55:00;6.20;99.90
6307;DHT22;3186;54.062;9.962;2023-11-18T10:57:32;6.20;99.90
6307;DHT22;3186;54.062;9.962;2023-11-18T11:00:05;6.20;99.90
6307;DHT22;3186;54.062;9.962;2023-11-18T11:02:40;6.20;99.90
6307;DHT22;3186;54.062;9.962;2023-11-18T11:05:10;6.20;99.90
6307;DHT22;3186;54.062;9.962;2023-11-18T11:07:44;6.20;99.90
6307;DHT22;3186;54.062;9.962;2023-11-18T11:10:10;6.20;99.90
6307;DHT22;3186;54.062;9.962;2023-11-18T11:12:43;6.20;99.90
6307;DHT22;3186;54.062;9.962;2023-11-18T11:15:29;6.20;99.90
6307;DHT22;3186;54.062;9.962;2023-11-18T11:18:03;6.30;99.90
6307;DHT22;3186;54.062;9.962;2023-11-18T11:20:39;6.40;99.90
6307;DHT22;3186;54.062;9.962;2023-11-18T11:23:21;6.40;99.90
6307;DHT22;3186;54.062;9.962;2023-11-18T11:26:18;6.40;99.90
6307;DHT22;3186;54.062;9.962;2023-11-18T11:31:39;6.50;99.90
6307;DHT22;3186;54.062;9.962;2023-11-18T11:34:06;6.50;99.90
6307;DHT22;3186;54.062;9.962;2023-11-18T11:36:44;6.50;99.90
6307;DHT22;3186;54.062;9.962;2023-11-18T11:39:13;6.50;99.90
6307;DHT22;3186;54.062;9.962;2023-11-18T11:41:45;6.60;99.90
6307;DHT22;3186;54.062;9.962;2023-11-18T11:44:14;6.70;99.90
6307;DHT22;3186;54.062;9.962;2023-11-18T11:46:40;6.60;99.90
6307;DHT22;3186;54.062;9.962;2023-11-18T11:49:09;6.60;99.90
6307;DHT22;3186;54.062;9.962;2023-11-18T11:52:01;6.70;99.90
6307;DHT22;3186;54.062;9.962;2023-11-18T11:54:35;6.70;99.90
6307;DHT22;3186;54.062;9.962;2023-11-18T11:57:03;6.60;99.90
6307;DHT22;3186;54.062;9.962;2023-11-18T12:02:13;6.60;99.90
6307;DHT22;3186;54.062;9.962;2023-11-18T12:04:51;6.60;99.90
6307;DHT22;3186;54.062;9.962;2023-11-18T12:07:22;6.60;99.90
6307;DHT22;3186;54.062;9.962;2023-11-18T12:09:54;6.60;99.90
6307;DHT22;3186;54.062;9.962;2023-11-18T12:12:24;6.60;99.90
6307;DHT22;3186;54.062;9.962;2023-11-18T12:14:56;6.70;99.90
6307;DHT22;3186;54.062;9.962;2023-11-18T12:17:23;6.80;99.90
6307;DHT22;3186;54.062;9.962;2023-11-18T12:19:51;6.80;99.90
6307;DHT22;3186;54.062;9.962;2023-11-18T12:22:24;6.80;99.90
6307;DHT22;3186;54.062;9.962;2023-11-18T12:27:45;6.90;99.90
6307;DHT22;3186;54.062;9.962;2023-11-18T12:33:01;6.90;99.90
6307;DHT22;3186;54.062;9.962;2023-11-18T12:41:39;7.00;99.90
6307;DHT22;3186;54.062;9.962;2023-11-18T12:47:03;6.90;99.90
6307;DHT22;3186;54.062;9.962;2023-11-18T12:49:40;6.90;99.90
6307;DHT22;3186;54.062;9.962;2023-11-18T12:52:13;7.00;99.90
6307;DHT22;3186;54.062;9.962;2023-11-18T12:54:41;6.90;99.90
6307;DHT22;3186;54.062;9.962;2023-11-18T12:57:09;6.90;99.90
6307;DHT22;3186;54.062;9.962;2023-11-18T12:59:36;6.90;99.90
6307;DHT22;3186;54.062;9.962;2023-11-18T13:02:10;7.00;99.90
6307;DHT22;3186;54.062;9.962;2023-11-18T13:04:44;7.00;99.90
6307;DHT22;3186;54.062;9.962;2023-11-18T13:07:13;6.90;99.90
6307;DHT22;3186;54.062;9.962;2023-11-18T13:09:39;6.90;99.90
6307;DHT22;3186;54.062;9.962;2023-11-18T13:12:08;6.90;99.90
6307;DHT22;3186;54.062;9.962;2023-11-18T13:14:35;6.90;99.90
6307;DHT22;3186;54.062;9.962;2023-11-18T13:17:09;6.90;99.90
6307;DHT22;3186;54.062;9.962;2023-11-18T13:19:37;7.00;99.90
6307;DHT22;3186;54.062;9.962;2023-11-18T13:22:04;6.90;99.90
6307;DHT22;3186;54.062;9.962;2023-11-18T13:24:31;6.90;99.90
6307;DHT22;3186;54.062;9.962;2023-11-18T13:26:57;7.00;99.90
6307;DHT22;3186;54.062;9.962;2023-11-18T13:29:24;7.00;99.90
6307;DHT22;3186;54.062;9.962;2023-11-18T13:31:52;6.90;99.90
6307;DHT22;3186;54.062;9.962;2023-11-18T13:34:19;6.90;99.90
6307;DHT22;3186;54.062;9.962;2023-11-18T13:36:46;6.90;99.90
6307;DHT22;3186;54.062;9.962;2023-11-18T13:39:19;6.90;99.90
6307;DHT22;3186;54.062;9.962;2023-11-18T13:41:49;6.90;99.90
6307;DHT22;3186;54.062;9.962;2023-11-18T13:44:36;6.90;99.90
6307;DHT22;3186;54.062;9.962;2023-11-18T13:47:07;6.90;99.90
6307;DHT22;3186;54.062;9.962;2023-11-18T13:49:40;6.90;99.90
6307;DHT22;3186;54.062;9.962;2023-11-18T13:52:09;6.90;99.90
6307;DHT22;3186;54.062;9.962;2023-11-18T13:54:37;6.90;99.90
6307;DHT22;3186;54.062;9.962;2023-11-18T13:57:04;6.80;99.90
6307;DHT22;3186;54.062;9.962;2023-11-18T13:59:31;6.80;99.90
6307;DHT22;3186;54.062;9.962;2023-11-18T14:01:58;6.90;99.90
6307;DHT22;3186;54.062;9.962;2023-11-18T14:04:28;6.80;99.90
6307;DHT22;3186;54.062;9.962;2023-11-18T14:06:58;6.80;99.90
6307;DHT22;3186;54.062;9.962;2023-11-18T14:09:25;6.90;99.90
6307;DHT22;3186;54.062;9.962;2023-11-18T14:11:54;6.80;99.90
6307;DHT22;3186;54.062;9.962;2023-11-18T14:14:25;6.80;99.90
6307;DHT22;3186;54.062;9.962;2023-11-18T14:16:52;6.80;99.90
6307;DHT22;3186;54.062;9.962;2023-11-18T14:19:19;6.70;99.90
6307;DHT22;3186;54.062;9.962;2023-11-18T14:21:45;6.50;99.90
6307;DHT22;3186;54.062;9.962;2023-11-18T14:24:11;6.80;99.90
6307;DHT22;3186;54.062;9.962;2023-11-18T14:26:38;6.80;99.90
6307;DHT22;3186;54.062;9.962;2023-11-18T14:29:06;6.70;99.90
6307;DHT22;3186;54.062;9.962;2023-11-18T14:31:35;6.80;99.90
6307;DHT22;3186;54.062;9.962;2023-11-18T14:34:01;6.80;99.90
6307;DHT22;3186;54.062;9.962;2023-11-18T14:36:27;6.80;99.90
6307;DHT22;3186;54.062;9.962;2023-11-18T14:38:54;6.80;99.90
6307;DHT22;3186;54.062;9.962;2023-11-18T14:41:20;6.70;99.90
6307;DHT22;3186;54.062;9.962;2023-11-18T14:43:50;6.70;99.90
6307;DHT22;3186;54.062;9.962;2023-11-18T14:46:16;6.80;99.90
6307;DHT22;3186;54.062;9.962;2023-11-18T14:48:41;6.60;99.90
6307;DHT22;3186;54.062;9.962;2023-11-18T14:51:08;6.70;99.90
6307;DHT22;3186;54.062;9.962;2023-11-18T14:53:33;6.70;99.90
6307;DHT22;3186;54.062;9.962;2023-11-18T14:56:00;6.70;99.90
6307;DHT22;3186;54.062;9.962;2023-11-18T14:58:26;6.60;99.90
6307;DHT22;3186;54.062;9.962;2023-11-18T15:00:52;6.60;99.90
6307;DHT22;3186;54.062;9.962;2023-11-18T15:03:22;6.70;99.90
6307;DHT22;3186;54.062;9.962;2023-11-18T15:05:48;6.70;99.90
6307;DHT22;3186;54.062;9.962;2023-11-18T15:08:13;6.60;99.90
6307;DHT22;3186;54.062;9.962;2023-11-18T15:10:41;6.60;99.90
6307;DHT22;3186;54.062;9.962;2023-11-18T15:13:11;6.60;99.90
6307;DHT22;3186;54.062;9.962;2023-11-18T15:15:46;6.60;99.90
6307;DHT22;3186;54.062;9.962;2023-11-18T15:18:13;6.60;99.90
6307;DHT22;3186;54.062;9.962;2023-11-18T15:20:40;6.60;99.90
6307;DHT22;3186;54.062;9.962;2023-11-18T15:23:09;6.60;99.90
6307;DHT22;3186;54.062;9.962;2023-11-18T15:25:35;6.60;99.90
6307;DHT22;3186;54.062;9.962;2023-11-18T15:28:00;6.50;99.90
6307;DHT22;3186;54.062;9.962;2023-11-18T15:30:26;6.60;99.90
6307;DHT22;3186;54.062;9.962;2023-11-18T15:32:53;6.60;99.90
6307;DHT22;3186;54.062;9.962;2023-11-18T15:35:19;6.50;99.90
6307;DHT22;3186;54.062;9.962;2023-11-18T15:37:47;6.50;99.90
6307;DHT22;3186;54.062;9.962;2023-11-18T15:40:14;6.60;99.90
6307;DHT22;3186;54.062;9.962;2023-11-18T15:42:45;6.50;99.90
6307;DHT22;3186;54.062;9.962;2023-11-18T15:45:21;6.40;99.90
6307;DHT22;3186;54.062;9.962;2023-11-18T15:47:52;6.50;99.90
6307;DHT22;3186;54.062;9.962;2023-11-18T15:50:17;6.40;99.90
6307;DHT22;3186;54.062;9.962;2023-11-18T15:52:48;6.40;99.90
6307;DHT22;3186;54.062;9.962;2023-11-18T15:55:15;6.30;99.90
6307;DHT22;3186;54.062;9.962;2023-11-18T15:57:47;6.30;99.90
6307;DHT22;3186;54.062;9.962;2023-11-18T16:00:13;6.40;99.90
6307;DHT22;3186;54.062;9.962;2023-11-18T16:02:43;6.30;99.90
6307;DHT22;3186;54.062;9.962;2023-11-18T16:05:14;6.30;99.90
6307;DHT22;3186;54.062;9.962;2023-11-18T16:07:43;6.30;99.90
6307;DHT22;3186;54.062;9.962;2023-11-18T16:10:10;6.30;99.90
6307;DHT22;3186;54.062;9.962;2023-11-18T16:12:36;6.30;99.90
6307;DHT22;3186;54.062;9.962;2023-11-18T16:15:02;6.40;99.90
6307;DHT22;3186;54.062;9.962;2023-11-18T16:17:29;6.30;99.90
6307;DHT22;3186;54.062;9.962;2023-11-18T16:19:55;6.30;99.90
6307;DHT22;3186;54.062;9.962;2023-11-18T16:22:20;6.40;99.90
6307;DHT22;3186;54.062;9.962;2023-11-18T16:24:46;6.30;99.90
6307;DHT22;3186;54.062;9.962;2023-11-18T16:27:13;6.40;99.90
6307;DHT22;3186;54.062;9.962;2023-11-18T16:29:40;6.30;99.90
6307;DHT22;3186;54.062;9.962;2023-11-18T16:32:06;6.30;99.90
6307;DHT22;3186;54.062;9.962;2023-11-18T16:34:31;6.30;99.90
6307;DHT22;3186;54.062;9.962;2023-11-18T16:36:57;6.30;99.90
6307;DHT22;3186;54.062;9.962;2023-11-18T16:39:25;6.20;99.90
6307;DHT22;3186;54.062;9.962;2023-11-18T16:41:51;6.30;99.90
6307;DHT22;3186;54.062;9.962;2023-11-18T16:44:17;6.20;99.90
6307;DHT22;3186;54.062;9.962;2023-11-18T16:46:43;6.20;99.90
6307;DHT22;3186;54.062;9.962;2023-11-18T16:49:11;6.20;99.90
6307;DHT22;3186;54.062;9.962;2023-11-18T16:51:37;6.20;99.90
6307;DHT22;3186;54.062;9.962;2023-11-18T16:54:04;6.20;99.90